sensor_id;sensor_type;location;lat;lon;timestamp;temperature;humidity
26186;DHT22;20067;48.764;9.176;2023-05-09T00:00:41;15.90;91.30
26186;DHT22;20067;48.764;9.176;2023-05-09T00:03:07;15.90;91.30
26186;DHT22;20067;48.764;9.176;2023-05-09T00:05:32;15.90;91.30
26186;DHT22;20067;48.764;9.176;2023-05-09T00:07:58;16.00;91.30
26186;DHT22;20067;48.764;9.176;2023-05-09T00:10:25;15.90;91.30
26186;DHT22;20067;48.764;9.176;2023-05-09T00:12:51;15.90;91.30
26186;DHT22;20067;48.764;9.176;2023-05-09T00:15:22;15.90;91.30
26186;DHT22;20067;48.764;9.176;2023-05-09T00:18:08;15.80;91.30
26186;DHT22;20067;48.764;9.176;2023-05-09T00:20:34;16.00;91.30
26186;DHT22;20067;48.764;9.176;2023-05-09T00:23:00;15.70;91.30
26186;DHT22;20067;48.764;9.176;2023-05-09T00:25:26;15.70;91.30
26186;DHT22;20067;48.764;9.176;2023-05-09T00:27:51;15.80;91.30
26186;DHT22;20067;48.764;9.176;2023-05-09T00:30:17;15.80;91.30
26186;DHT22;20067;48.764;9.176;2023-05-09T00:32:43;15.80;91.30
26186;DHT22;20067;48.764;9.176;2023-05-09T00:35:09;15.80;91.30
26186;DHT22;20067;48.764;9.176;2023-05-09T00:37:35;16.00;91.30
26186;DHT22;20067;48.764;9.176;2023-05-09T00:40:01;15.90;91.30
26186;DHT22;20067;48.764;9.176;2023-05-09T00:42:26;15.90;91.30
26186;DHT22;20067;48.764;9.176;2023-05-09T00:44:52;15.80;91.30
26186;DHT22;20067;48.764;9.176;2023-05-09T00:47:19;15.70;91.30
26186;DHT22;20067;48.764;9.176;2023-05-09T00:49:44;15.60;91.30
26186;DHT22;20067;48.764;9.176;2023-05-09T00:52:10;15.80;91.30
26186;DHT22;20067;48.764;9.176;2023-05-09T00:54:36;15.80;91.30
26186;DHT22;20067;48.764;9.176;2023-05-09T00:57:02;15.70;91.30
26186;DHT22;20067;48.764;9.176;2023-05-09T00:59:28;15.70;91.30
26186;DHT22;20067;48.764;9.176;2023-05-09T01:01:53;15.70;91.30
26186;DHT22;20067;48.764;9.176;2023-05-09T01:04:19;15.80;91.30
26186;DHT22;20067;48.764;9.176;2023-05-09T01:06:57;15.60;91.30
26186;DHT22;20067;48.764;9.176;2023-05-09T01:09:49;15.60;91.30
26186;DHT22;20067;48.764;9.176;2023-05-09T01:12:30;15.70;91.30
26186;DHT22;20067;48.764;9.176;2023-05-09T01:18:19;15.70;91.30
26186;DHT22;20067;48.764;9.176;2023-05-09T01:20:49;15.80;91.30
26186;DHT22;20067;48.764;9.176;2023-05-09T01:31:21;15.50;91.30
26186;DHT22;20067;48.764;9.176;2023-05-09T01:33:52;15.50;91.30
26186;DHT22;20067;48.764;9.176;2023-05-09T01:36:19;15.60;91.30
26186;DHT22;20067;48.764;9.176;2023-05-09T01:38:47;15.70;91.30
26186;DHT22;20067;48.764;9.176;2023-05-09T01:41:16;15.70;91.30
26186;DHT22;20067;48.764;9.176;2023-05-09T01:43:44;15.80;91.30
26186;DHT22;20067;48.764;9.176;2023-05-09T01:46:11;15.80;91.30
26186;DHT22;20067;48.764;9.176;2023-05-09T01:48:37;16.00;91.30
26186;DHT22;20067;48.764;9.176;2023-05-09T01:51:06;16.00;91.30
26186;DHT22;20067;48.764;9.176;2023-05-09T01:53:33;15.80;91.30
26186;DHT22;20067;48.764;9.176;2023-05-09T01:56:01;15.80;91.30
26186;DHT22;20067;48.764;9.176;2023-05-09T01:58:31;15.80;91.30
26186;DHT22;20067;48.764;9.176;2023-05-09T02:00:59;15.80;91.30
26186;DHT22;20067;48.764;9.176;2023-05-09T02:03:25;15.80;91.30
26186;DHT22;20067;48.764;9.176;2023-05-09T02:05:52;15.90;91.30
26186;DHT22;20067;48.764;9.176;2023-05-09T02:08:19;15.90;91.30
26186;DHT22;20067;48.764;9.176;2023-05-09T02:10:47;15.70;91.30
26186;DHT22;20067;48.764;9.176;2023-05-09T02:13:13;15.50;91.30
26186;DHT22;20067;48.764;9.176;2023-05-09T02:15:39;15.20;91.30
26186;DHT22;20067;48.764;9.176;2023-05-09T02:18:05;15.00;91.30
26186;DHT22;20067;48.764;9.176;2023-05-09T02:20:30;15.10;91.30
26186;DHT22;20067;48.764;9.176;2023-05-09T02:22:57;15.50;91.30
26186;DHT22;20067;48.764;9.176;2023-05-09T02:25:23;15.60;91.30
26186;DHT22;20067;48.764;9.176;2023-05-09T02:27:51;15.40;91.30
26186;DHT22;20067;48.764;9.176;2023-05-09T02:30:20;15.30;91.30
26186;DHT22;20067;48.764;9.176;2023-05-09T02:32:52;15.20;91.30
26186;DHT22;20067;48.764;9.176;2023-05-09T02:35:21;15.10;91.30
26186;DHT22;20067;48.764;9.176;2023-05-09T02:37:47;15.10;91.30
26186;DHT22;20067;48.764;9.176;2023-05-09T02:40:13;15.20;91.30
26186;DHT22;20067;48.764;9.176;2023-05-09T02:42:39;14.90;91.30
26186;DHT22;20067;48.764;9.176;2023-05-09T02:45:06;14.80;91.30
26186;DHT22;20067;48.764;9.176;2023-05-09T02:47:32;14.90;91.30
26186;DHT22;20067;48.764;9.176;2023-05-09T02:49:57;14.90;91.30
26186;DHT22;20067;48.764;9.176;2023-05-09T02:52:23;15.30;91.30
26186;DHT22;20067;48.764;9.176;2023-05-09T02:54:49;15.50;91.30
26186;DHT22;20067;48.764;9.176;2023-05-09T02:57:15;15.60;91.30
26186;DHT22;20067;48.764;9.176;2023-05-09T02:59:40;15.60;91.30
26186;DHT22;20067;48.764;9.176;2023-05-09T03:02:06;15.50;91.30
26186;DHT22;20067;48.764;9.176;2023-05-09T03:04:32;15.40;91.30
26186;DHT22;20067;48.764;9.176;2023-05-09T03:06:58;15.40;91.30
26186;DHT22;20067;48.764;9.176;2023-05-09T03:09:23;15.20;91.30
26186;DHT22;20067;48.764;9.176;2023-05-09T03:11:49;15.20;91.30
26186;DHT22;20067;48.764;9.176;2023-05-09T03:14:15;15.10;91.30
26186;DHT22;20067;48.764;9.176;2023-05-09T03:16:41;15.00;91.30
26186;DHT22;20067;48.764;9.176;2023-05-09T03:19:06;15.10;91.30
26186;DHT22;20067;48.764;9.176;2023-05-09T03:21:33;15.00;91.30
26186;DHT22;20067;48.764;9.176;2023-05-09T03:23:58;15.10;91.30
26186;DHT22;20067;48.764;9.176;2023-05-09T03:26:24;15.10;91.30
26186;DHT22;20067;48.764;9.176;2023-05-09T03:28:50;15.00;91.30
26186;DHT22;20067;48.764;9.176;2023-05-09T03:31:16;15.10;91.30
26186;DHT22;20067;48.764;9.176;2023-05-09T03:33:42;15.30;91.30
26186;DHT22;20067;48.764;9.176;2023-05-09T03:36:07;15.60;91.30
26186;DHT22;20067;48.764;9.176;2023-05-09T03:38:33;15.70;91.30
26186;DHT22;20067;48.764;9.176;2023-05-09T03:40:59;15.40;91.30
26186;DHT22;20067;48.764;9.176;2023-05-09T03:43:24;15.40;91.30
26186;DHT22;20067;48.764;9.176;2023-05-09T03:45:50;15.50;91.30
26186;DHT22;20067;48.764;9.176;2023-05-09T03:48:17;15.40;91.30
26186;DHT22;20067;48.764;9.176;2023-05-09T03:50:42;15.50;91.30
26186;DHT22;20067;48.764;9.176;2023-05-09T03:53:08;15.60;91.30
26186;DHT22;20067;48.764;9.176;2023-05-09T03:55:34;15.60;91.30
26186;DHT22;20067;48.764;9.176;2023-05-09T03:57:59;15.50;91.30
26186;DHT22;20067;48.764;9.176;2023-05-09T04:00:25;15.50;91.30
26186;DHT22;20067;48.764;9.176;2023-05-09T04:02:51;15.40;91.30
26186;DHT22;20067;48.764;9.176;2023-05-09T04:05:17;15.40;91.30
26186;DHT22;20067;48.764;9.176;2023-05-09T04:07:43;15.50;91.30
26186;DHT22;20067;48.764;9.176;2023-05-09T04:10:09;15.50;91.30
26186;DHT22;20067;48.764;9.176;2023-05-09T04:12:35;15.70;91.30
26186;DHT22;20067;48.764;9.176;2023-05-09T04:15:00;15.60;91.30
26186;DHT22;20067;48.764;9.176;2023-05-09T04:17:26;15.40;91.30
26186;DHT22;20067;48.764;9.176;2023-05-09T04:19:51;15.40;91.30
26186;DHT22;20067;48.764;9.176;2023-05-09T04:22:17;15.50;91.30
26186;DHT22;20067;48.764;9.176;2023-05-09T04:24:43;15.50;91.30
26186;DHT22;20067;48.764;9.176;2023-05-09T04:27:08;15.50;91.30
26186;DHT22;20067;48.764;9.176;2023-05-09T04:29:34;15.60;91.30
26186;DHT22;20067;48.764;9.176;2023-05-09T04:32:01;15.50;91.30
26186;DHT22;20067;48.764;9.176;2023-05-09T04:34:27;15.50;91.30
26186;DHT22;20067;48.764;9.176;2023-05-09T04:36:54;15.30;91.30
26186;DHT22;20067;48.764;9.176;2023-05-09T04:39:20;15.20;91.30
26186;DHT22;20067;48.764;9.176;2023-05-09T04:41:45;15.30;91.30
26186;DHT22;20067;48.764;9.176;2023-05-09T04:44:15;15.40;91.30
26186;DHT22;20067;48.764;9.176;2023-05-09T04:46:41;15.50;91.30
26186;DHT22;20067;48.764;9.176;2023-05-09T04:49:08;15.60;91.30
26186;DHT22;20067;48.764;9.176;2023-05-09T04:51:33;15.50;91.30
26186;DHT22;20067;48.764;9.176;2023-05-09T04:53:59;15.50;91.30
26186;DHT22;20067;48.764;9.176;2023-05-09T04:56:24;15.40;91.30
26186;DHT22;20067;48.764;9.176;2023-05-09T04:58:50;15.50;91.30
26186;DHT22;20067;48.764;9.176;2023-05-09T05:01:17;15.70;91.30
26186;DHT22;20067;48.764;9.176;2023-05-09T05:03:42;15.90;91.30
26186;DHT22;20067;48.764;9.176;2023-05-09T05:06:08;16.20;91.30
26186;DHT22;20067;48.764;9.176;2023-05-09T05:08:34;16.20;91.30
26186;DHT22;20067;48.764;9.176;2023-05-09T05:10:59;16.40;91.30
26186;DHT22;20067;48.764;9.176;2023-05-09T05:13:25;16.60;91.30
26186;DHT22;20067;48.764;9.176;2023-05-09T05:15:51;16.20;91.30
26186;DHT22;20067;48.764;9.176;2023-05-09T05:18:16;15.70;91.30
26186;DHT22;20067;48.764;9.176;2023-05-09T05:20:42;15.70;91.30
26186;DHT22;20067;48.764;9.176;2023-05-09T05:23:08;15.80;91.30
26186;DHT22;20067;48.764;9.176;2023-05-09T05:25:34;16.20;91.30
26186;DHT22;20067;48.764;9.176;2023-05-09T05:28:00;16.30;91.30
26186;DHT22;20067;48.764;9.176;2023-05-09T05:30:25;16.20;91.30
26186;DHT22;20067;48.764;9.176;2023-05-09T05:32:51;15.90;91.30
26186;DHT22;20067;48.764;9.176;2023-05-09T05:35:17;15.90;91.30
26186;DHT22;20067;48.764;9.176;2023-05-09T05:37:43;15.90;91.30
26186;DHT22;20067;48.764;9.176;2023-05-09T05:40:09;16.10;91.30
26186;DHT22;20067;48.764;9.176;2023-05-09T05:42:35;16.20;91.30
26186;DHT22;20067;48.764;9.176;2023-05-09T05:45:01;16.60;91.30
26186;DHT22;20067;48.764;9.176;2023-05-09T05:47:38;16.70;91.30
26186;DHT22;20067;48.764;9.176;2023-05-09T05:50:05;16.70;91.30
26186;DHT22;20067;48.764;9.176;2023-05-09T05:52:40;16.40;91.30
26186;DHT22;20067;48.764;9.176;2023-05-09T05:55:06;16.10;91.30
26186;DHT22;20067;48.764;9.176;2023-05-09T05:57:32;16.00;91.30
26186;DHT22;20067;48.764;9.176;2023-05-09T05:59:59;16.10;91.30
26186;DHT22;20067;48.764;9.176;2023-05-09T06:02:25;15.90;91.30
26186;DHT22;20067;48.764;9.176;2023-05-09T06:04:51;15.80;91.30
26186;DHT22;20067;48.764;9.176;2023-05-09T06:07:16;15.80;91.30
26186;DHT22;20067;48.764;9.176;2023-05-09T06:09:42;16.00;91.30
26186;DHT22;20067;48.764;9.176;2023-05-09T06:12:07;16.10;91.30
26186;DHT22;20067;48.764;9.176;2023-05-09T06:14:33;16.00;91.30
26186;DHT22;20067;48.764;9.176;2023-05-09T06:16:59;16.10;91.30
26186;DHT22;20067;48.764;9.176;2023-05-09T06:19:25;16.30;91.30
26186;DHT22;20067;48.764;9.176;2023-05-09T06:21:51;16.50;91.30
26186;DHT22;20067;48.764;9.176;2023-05-09T06:24:16;16.80;91.30
26186;DHT22;20067;48.764;9.176;2023-05-09T06:26:42;16.80;91.30
26186;DHT22;20067;48.764;9.176;2023-05-09T06:29:08;16.70;91.30
26186;DHT22;20067;48.764;9.176;2023-05-09T06:31:34;16.50;91.30
26186;DHT22;20067;48.764;9.176;2023-05-09T06:34:06;16.50;91.30
26186;DHT22;20067;48.764;9.176;2023-05-09T06:36:32;16.60;91.30
26186;DHT22;20067;48.764;9.176;2023-05-09T06:38:58;16.80;91.30
26186;DHT22;20067;48.764;9.176;2023-05-09T06:41:24;17.00;91.30
26186;DHT22;20067;48.764;9.176;2023-05-09T06:43:53;17.10;91.30
26186;DHT22;20067;48.764;9.176;2023-05-09T06:46:19;17.20;91.30
26186;DHT22;20067;48.764;9.176;2023-05-09T06:48:44;17.40;91.30
26186;DHT22;20067;48.764;9.176;2023-05-09T06:51:10;17.60;91.30
26186;DHT22;20067;48.764;9.176;2023-05-09T06:53:36;17.40;91.30
26186;DHT22;20067;48.764;9.176;2023-05-09T06:56:02;17.30;91.30
26186;DHT22;20067;48.764;9.176;2023-05-09T06:58:27;17.40;91.30
26186;DHT22;20067;48.764;9.176;2023-05-09T07:00:53;17.60;91.30
26186;DHT22;20067;48.764;9.176;2023-05-09T07:03:19;17.80;91.30
26186;DHT22;20067;48.764;9.176;2023-05-09T07:05:45;18.10;91.30
26186;DHT22;20067;48.764;9.176;2023-05-09T07:08:10;18.30;91.30
26186;DHT22;20067;48.764;9.176;2023-05-09T07:10:36;18.70;89.20
26186;DHT22;20067;48.764;9.176;2023-05-09T07:13:03;18.60;89.60
26186;DHT22;20067;48.764;9.176;2023-05-09T07:15:29;18.70;89.00
26186;DHT22;20067;48.764;9.176;2023-05-09T07:17:54;18.30;88.30
26186;DHT22;20067;48.764;9.176;2023-05-09T07:20:20;18.10;89.60
26186;DHT22;20067;48.764;9.176;2023-05-09T07:22:46;18.10;89.20
26186;DHT22;20067;48.764;9.176;2023-05-09T07:25:11;18.10;89.40
26186;DHT22;20067;48.764;9.176;2023-05-09T07:27:37;18.40;88.50
26186;DHT22;20067;48.764;9.176;2023-05-09T07:30:04;18.40;88.20
26186;DHT22;20067;48.764;9.176;2023-05-09T07:32:30;19.00;86.70
26186;DHT22;20067;48.764;9.176;2023-05-09T07:34:55;19.80;83.70
26186;DHT22;20067;48.764;9.176;2023-05-09T07:37:21;20.30;82.50
26186;DHT22;20067;48.764;9.176;2023-05-09T07:39:47;20.20;81.80
26186;DHT22;20067;48.764;9.176;2023-05-09T07:42:13;20.00;81.80
26186;DHT22;20067;48.764;9.176;2023-05-09T07:44:38;20.00;81.20
26186;DHT22;20067;48.764;9.176;2023-05-09T07:47:04;20.20;81.00
26186;DHT22;20067;48.764;9.176;2023-05-09T07:49:31;21.20;78.70
26186;DHT22;20067;48.764;9.176;2023-05-09T07:51:56;22.30;76.50
26186;DHT22;20067;48.764;9.176;2023-05-09T07:54:22;21.60;77.40
26186;DHT22;20067;48.764;9.176;2023-05-09T07:56:48;21.10;78.80
26186;DHT22;20067;48.764;9.176;2023-05-09T07:59:13;21.50;78.50
26186;DHT22;20067;48.764;9.176;2023-05-09T08:01:39;21.70;78.20
26186;DHT22;20067;48.764;9.176;2023-05-09T08:04:04;22.30;76.90
26186;DHT22;20067;48.764;9.176;2023-05-09T08:06:31;22.80;75.30
26186;DHT22;20067;48.764;9.176;2023-05-09T08:08:57;23.50;73.40
26186;DHT22;20067;48.764;9.176;2023-05-09T08:11:23;23.50;73.30
26186;DHT22;20067;48.764;9.176;2023-05-09T08:13:48;24.50;72.00
26186;DHT22;20067;48.764;9.176;2023-05-09T08:16:14;25.40;69.00
26186;DHT22;20067;48.764;9.176;2023-05-09T08:18:42;24.20;70.90
26186;DHT22;20067;48.764;9.176;2023-05-09T08:21:07;23.30;73.30
26186;DHT22;20067;48.764;9.176;2023-05-09T08:23:33;23.10;75.20
26186;DHT22;20067;48.764;9.176;2023-05-09T08:25:59;24.30;72.90
26186;DHT22;20067;48.764;9.176;2023-05-09T08:28:24;23.30;72.90
26186;DHT22;20067;48.764;9.176;2023-05-09T08:30:55;23.40;73.80
26186;DHT22;20067;48.764;9.176;2023-05-09T08:33:22;24.60;71.10
26186;DHT22;20067;48.764;9.176;2023-05-09T08:35:52;24.60;69.40
26186;DHT22;20067;48.764;9.176;2023-05-09T08:38:18;24.10;71.50
26186;DHT22;20067;48.764;9.176;2023-05-09T08:40:44;23.60;73.20
26186;DHT22;20067;48.764;9.176;2023-05-09T08:43:11;24.10;72.10
26186;DHT22;20067;48.764;9.176;2023-05-09T08:45:50;22.40;74.50
26186;DHT22;20067;48.764;9.176;2023-05-09T08:48:16;20.70;79.30
26186;DHT22;20067;48.764;9.176;2023-05-09T08:50:43;20.20;81.50
26186;DHT22;20067;48.764;9.176;2023-05-09T08:53:09;20.40;81.50
26186;DHT22;20067;48.764;9.176;2023-05-09T08:55:35;20.50;82.20
26186;DHT22;20067;48.764;9.176;2023-05-09T08:58:02;20.80;81.30
26186;DHT22;20067;48.764;9.176;2023-05-09T09:00:28;20.70;81.60
26186;DHT22;20067;48.764;9.176;2023-05-09T09:02:57;20.40;82.20
26186;DHT22;20067;48.764;9.176;2023-05-09T09:05:25;20.40;82.20
26186;DHT22;20067;48.764;9.176;2023-05-09T09:07:52;20.80;81.10
26186;DHT22;20067;48.764;9.176;2023-05-09T09:10:18;21.20;81.20
26186;DHT22;20067;48.764;9.176;2023-05-09T09:12:46;20.90;81.10
26186;DHT22;20067;48.764;9.176;2023-05-09T09:15:15;21.00;80.70
26186;DHT22;20067;48.764;9.176;2023-05-09T09:17:42;21.00;80.30
26186;DHT22;20067;48.764;9.176;2023-05-09T09:20:13;21.20;79.40
26186;DHT22;20067;48.764;9.176;2023-05-09T09:22:42;20.90;80.90
26186;DHT22;20067;48.764;9.176;2023-05-09T09:25:11;20.90;80.60
26186;DHT22;20067;48.764;9.176;2023-05-09T09:27:37;21.80;79.50
26186;DHT22;20067;48.764;9.176;2023-05-09T09:30:07;22.40;76.50
26186;DHT22;20067;48.764;9.176;2023-05-09T09:32:33;22.00;77.40
26186;DHT22;20067;48.764;9.176;2023-05-09T09:35:10;22.90;76.00
26186;DHT22;20067;48.764;9.176;2023-05-09T09:37:37;24.40;72.70
26186;DHT22;20067;48.764;9.176;2023-05-09T09:40:09;24.40;71.00
26186;DHT22;20067;48.764;9.176;2023-05-09T09:42:45;23.30;72.70
26186;DHT22;20067;48.764;9.176;2023-05-09T09:45:13;23.30;73.00
26186;DHT22;20067;48.764;9.176;2023-05-09T09:47:39;23.70;72.60
26186;DHT22;20067;48.764;9.176;2023-05-09T09:50:17;24.90;70.90
26186;DHT22;20067;48.764;9.176;2023-05-09T09:52:50;25.90;67.30
26186;DHT22;20067;48.764;9.176;2023-05-09T09:55:17;23.70;71.40
26186;DHT22;20067;48.764;9.176;2023-05-09T09:57:43;22.20;74.70
26186;DHT22;20067;48.764;9.176;2023-05-09T10:00:15;21.60;76.90
26186;DHT22;20067;48.764;9.176;2023-05-09T10:02:57;22.60;75.60
26186;DHT22;20067;48.764;9.176;2023-05-09T10:05:25;23.60;73.70
26186;DHT22;20067;48.764;9.176;2023-05-09T10:07:59;23.20;74.10
26186;DHT22;20067;48.764;9.176;2023-05-09T10:10:27;24.10;72.30
26186;DHT22;20067;48.764;9.176;2023-05-09T10:12:55;24.00;72.60
26186;DHT22;20067;48.764;9.176;2023-05-09T10:15:23;23.00;75.00
26186;DHT22;20067;48.764;9.176;2023-05-09T10:17:59;21.70;77.70
26186;DHT22;20067;48.764;9.176;2023-05-09T10:20:27;21.10;79.60
26186;DHT22;20067;48.764;9.176;2023-05-09T10:22:57;21.40;79.70
26186;DHT22;20067;48.764;9.176;2023-05-09T10:25:47;22.20;77.70
26186;DHT22;20067;48.764;9.176;2023-05-09T10:28:17;22.70;76.00
26186;DHT22;20067;48.764;9.176;2023-05-09T10:31:00;23.60;74.20
26186;DHT22;20067;48.764;9.176;2023-05-09T10:33:39;24.00;73.40
26186;DHT22;20067;48.764;9.176;2023-05-09T10:36:07;23.70;73.60
26186;DHT22;20067;48.764;9.176;2023-05-09T10:38:33;23.00;75.30
26186;DHT22;20067;48.764;9.176;2023-05-09T10:41:00;24.30;72.70
26186;DHT22;20067;48.764;9.176;2023-05-09T10:43:29;25.10;70.30
26186;DHT22;20067;48.764;9.176;2023-05-09T10:45:56;24.50;71.30
26186;DHT22;20067;48.764;9.176;2023-05-09T10:48:22;24.30;72.10
26186;DHT22;20067;48.764;9.176;2023-05-09T10:50:48;26.80;67.40
26186;DHT22;20067;48.764;9.176;2023-05-09T10:53:14;24.90;69.70
26186;DHT22;20067;48.764;9.176;2023-05-09T10:55:57;24.10;72.00
26186;DHT22;20067;48.764;9.176;2023-05-09T10:58:31;24.90;71.10
26186;DHT22;20067;48.764;9.176;2023-05-09T11:01:05;24.00;72.20
26186;DHT22;20067;48.764;9.176;2023-05-09T11:03:56;25.00;70.90
26186;DHT22;20067;48.764;9.176;2023-05-09T11:12:00;26.30;66.40
26186;DHT22;20067;48.764;9.176;2023-05-09T11:14:44;24.80;70.40
26186;DHT22;20067;48.764;9.176;2023-05-09T11:24:50;27.30;64.80
26186;DHT22;20067;48.764;9.176;2023-05-09T11:27:20;26.30;65.60
26186;DHT22;20067;48.764;9.176;2023-05-09T11:32:16;24.90;68.50
26186;DHT22;20067;48.764;9.176;2023-05-09T11:34:43;25.30;67.80
26186;DHT22;20067;48.764;9.176;2023-05-09T11:37:16;27.60;63.90
26186;DHT22;20067;48.764;9.176;2023-05-09T11:40:08;29.10;59.00
26186;DHT22;20067;48.764;9.176;2023-05-09T11:42:41;29.30;58.50
26186;DHT22;20067;48.764;9.176;2023-05-09T11:45:09;25.80;63.70
26186;DHT22;20067;48.764;9.176;2023-05-09T11:47:36;24.60;68.40
26186;DHT22;20067;48.764;9.176;2023-05-09T11:50:05;24.70;69.70
26186;DHT22;20067;48.764;9.176;2023-05-09T11:52:31;25.70;65.90
26186;DHT22;20067;48.764;9.176;2023-05-09T11:54:57;24.90;67.20
26186;DHT22;20067;48.764;9.176;2023-05-09T11:57:23;24.40;68.10
26186;DHT22;20067;48.764;9.176;2023-05-09T11:59:49;24.10;68.50
26186;DHT22;20067;48.764;9.176;2023-05-09T12:02:15;23.60;68.90
26186;DHT22;20067;48.764;9.176;2023-05-09T12:04:41;24.50;67.90
26186;DHT22;20067;48.764;9.176;2023-05-09T12:07:06;26.10;64.80
26186;DHT22;20067;48.764;9.176;2023-05-09T12:09:35;27.60;61.40
26186;DHT22;20067;48.764;9.176;2023-05-09T12:12:10;27.80;59.80
26186;DHT22;20067;48.764;9.176;2023-05-09T12:14:37;28.10;60.60
26186;DHT22;20067;48.764;9.176;2023-05-09T12:17:05;26.50;62.00
26186;DHT22;20067;48.764;9.176;2023-05-09T12:19:30;24.60;67.10
26186;DHT22;20067;48.764;9.176;2023-05-09T12:22:01;24.60;68.20
26186;DHT22;20067;48.764;9.176;2023-05-09T12:24:28;25.30;65.50
26186;DHT22;20067;48.764;9.176;2023-05-09T12:26:55;25.10;66.60
26186;DHT22;20067;48.764;9.176;2023-05-09T12:29:21;24.80;66.30
26186;DHT22;20067;48.764;9.176;2023-05-09T12:31:48;24.30;67.10
26186;DHT22;20067;48.764;9.176;2023-05-09T12:34:14;24.10;65.30
26186;DHT22;20067;48.764;9.176;2023-05-09T12:36:43;23.90;67.10
26186;DHT22;20067;48.764;9.176;2023-05-09T12:39:15;24.00;67.50
26186;DHT22;20067;48.764;9.176;2023-05-09T12:41:45;24.20;67.20
26186;DHT22;20067;48.764;9.176;2023-05-09T12:44:22;24.70;66.40
26186;DHT22;20067;48.764;9.176;2023-05-09T12:46:59;25.10;64.80
26186;DHT22;20067;48.764;9.176;2023-05-09T12:49:26;23.50;67.90
26186;DHT22;20067;48.764;9.176;2023-05-09T12:51:53;22.90;69.60
26186;DHT22;20067;48.764;9.176;2023-05-09T12:54:23;22.70;70.50
26186;DHT22;20067;48.764;9.176;2023-05-09T12:56:50;23.30;70.10
26186;DHT22;20067;48.764;9.176;2023-05-09T12:59:25;24.00;68.20
26186;DHT22;20067;48.764;9.176;2023-05-09T13:01:58;23.80;68.10
26186;DHT22;20067;48.764;9.176;2023-05-09T13:04:26;24.30;67.20
26186;DHT22;20067;48.764;9.176;2023-05-09T13:06:54;25.20;65.40
26186;DHT22;20067;48.764;9.176;2023-05-09T13:09:24;25.80;63.70
26186;DHT22;20067;48.764;9.176;2023-05-09T13:11:52;25.60;63.70
26186;DHT22;20067;48.764;9.176;2023-05-09T13:14:19;25.60;63.60
26186;DHT22;20067;48.764;9.176;2023-05-09T13:16:46;24.80;65.30
26186;DHT22;20067;48.764;9.176;2023-05-09T13:19:12;24.60;66.40
26186;DHT22;20067;48.764;9.176;2023-05-09T13:21:38;24.60;66.70
26186;DHT22;20067;48.764;9.176;2023-05-09T13:24:04;24.60;66.70
26186;DHT22;20067;48.764;9.176;2023-05-09T13:26:30;24.20;68.30
26186;DHT22;20067;48.764;9.176;2023-05-09T13:28:56;24.40;68.00
26186;DHT22;20067;48.764;9.176;2023-05-09T13:31:22;24.40;68.10
26186;DHT22;20067;48.764;9.176;2023-05-09T13:33:48;23.70;69.30
26186;DHT22;20067;48.764;9.176;2023-05-09T13:36:14;23.70;70.30
26186;DHT22;20067;48.764;9.176;2023-05-09T13:38:40;23.70;71.10
26186;DHT22;20067;48.764;9.176;2023-05-09T13:41:07;23.90;69.30
26186;DHT22;20067;48.764;9.176;2023-05-09T13:43:33;24.10;68.60
26186;DHT22;20067;48.764;9.176;2023-05-09T13:45:59;23.60;69.20
26186;DHT22;20067;48.764;9.176;2023-05-09T13:48:24;23.10;70.80
26186;DHT22;20067;48.764;9.176;2023-05-09T13:50:50;23.40;70.30
26186;DHT22;20067;48.764;9.176;2023-05-09T13:53:16;23.60;70.30
26186;DHT22;20067;48.764;9.176;2023-05-09T13:55:41;24.00;69.50
26186;DHT22;20067;48.764;9.176;2023-05-09T13:58:07;24.00;69.00
26186;DHT22;20067;48.764;9.176;2023-05-09T14:00:33;23.60;69.60
26186;DHT22;20067;48.764;9.176;2023-05-09T14:03:00;23.10;71.30
26186;DHT22;20067;48.764;9.176;2023-05-09T14:05:26;23.00;70.80
26186;DHT22;20067;48.764;9.176;2023-05-09T14:07:52;22.80;71.60
26186;DHT22;20067;48.764;9.176;2023-05-09T14:10:18;22.40;72.50
26186;DHT22;20067;48.764;9.176;2023-05-09T14:12:43;22.00;73.40
26186;DHT22;20067;48.764;9.176;2023-05-09T14:15:10;21.90;73.60
26186;DHT22;20067;48.764;9.176;2023-05-09T14:17:36;22.00;73.90
26186;DHT22;20067;48.764;9.176;2023-05-09T14:20:02;22.00;73.20
26186;DHT22;20067;48.764;9.176;2023-05-09T14:22:28;22.30;72.90
26186;DHT22;20067;48.764;9.176;2023-05-09T14:24:53;22.40;73.30
26186;DHT22;20067;48.764;9.176;2023-05-09T14:27:21;22.70;72.40
26186;DHT22;20067;48.764;9.176;2023-05-09T14:29:47;22.80;72.20
26186;DHT22;20067;48.764;9.176;2023-05-09T14:32:13;22.00;74.20
26186;DHT22;20067;48.764;9.176;2023-05-09T14:34:39;21.30;76.70
26186;DHT22;20067;48.764;9.176;2023-05-09T14:37:05;21.50;77.40
26186;DHT22;20067;48.764;9.176;2023-05-09T14:39:41;21.60;75.70
26186;DHT22;20067;48.764;9.176;2023-05-09T14:42:08;21.30;76.20
26186;DHT22;20067;48.764;9.176;2023-05-09T14:44:39;21.10;78.10
26186;DHT22;20067;48.764;9.176;2023-05-09T14:47:06;21.20;77.60
26186;DHT22;20067;48.764;9.176;2023-05-09T14:49:32;20.90;77.60
26186;DHT22;20067;48.764;9.176;2023-05-09T14:51:58;20.60;79.10
26186;DHT22;20067;48.764;9.176;2023-05-09T14:54:24;20.90;78.50
26186;DHT22;20067;48.764;9.176;2023-05-09T14:56:49;21.10;78.10
26186;DHT22;20067;48.764;9.176;2023-05-09T14:59:15;21.30;77.20
26186;DHT22;20067;48.764;9.176;2023-05-09T15:01:41;21.80;76.60
26186;DHT22;20067;48.764;9.176;2023-05-09T15:04:06;22.60;74.00
26186;DHT22;20067;48.764;9.176;2023-05-09T15:06:32;22.80;71.60
26186;DHT22;20067;48.764;9.176;2023-05-09T15:08:58;22.60;71.80
26186;DHT22;20067;48.764;9.176;2023-05-09T15:11:23;22.70;72.20
26186;DHT22;20067;48.764;9.176;2023-05-09T15:13:51;23.00;72.10
26186;DHT22;20067;48.764;9.176;2023-05-09T15:16:17;23.30;71.20
26186;DHT22;20067;48.764;9.176;2023-05-09T15:18:44;23.60;70.10
26186;DHT22;20067;48.764;9.176;2023-05-09T15:21:11;23.80;68.00
26186;DHT22;20067;48.764;9.176;2023-05-09T15:23:37;23.70;68.10
26186;DHT22;20067;48.764;9.176;2023-05-09T15:26:06;23.80;67.70
26186;DHT22;20067;48.764;9.176;2023-05-09T15:28:37;23.70;68.10
26186;DHT22;20067;48.764;9.176;2023-05-09T15:31:04;23.70;67.70
26186;DHT22;20067;48.764;9.176;2023-05-09T15:33:30;23.80;68.20
26186;DHT22;20067;48.764;9.176;2023-05-09T15:35:57;23.60;68.50
26186;DHT22;20067;48.764;9.176;2023-05-09T15:38:23;23.60;69.30
26186;DHT22;20067;48.764;9.176;2023-05-09T15:40:49;23.60;69.70
26186;DHT22;20067;48.764;9.176;2023-05-09T15:43:14;23.60;68.90
26186;DHT22;20067;48.764;9.176;2023-05-09T15:45:40;23.70;68.70
26186;DHT22;20067;48.764;9.176;2023-05-09T15:48:13;23.40;69.20
26186;DHT22;20067;48.764;9.176;2023-05-09T15:50:40;23.40;69.40
26186;DHT22;20067;48.764;9.176;2023-05-09T15:53:06;23.30;69.00
26186;DHT22;20067;48.764;9.176;2023-05-09T15:55:32;23.00;70.50
26186;DHT22;20067;48.764;9.176;2023-05-09T15:57:58;23.10;70.10